createdAt,value
2017-10-13T00:00:59.620Z,89.30
2017-10-13T00:03:27.953Z,90.00
2017-10-13T00:05:56.244Z,89.60
2017-10-13T00:08:24.533Z,89.80
2017-10-13T00:10:52.846Z,89.80
2017-10-13T00:13:21.142Z,89.90
2017-10-13T00:15:49.456Z,89.90
2017-10-13T00:18:17.746Z,89.70
2017-10-13T00:20:46.054Z,89.60
2017-10-13T00:23:14.340Z,89.60
2017-10-13T00:25:42.649Z,89.60
2017-10-13T00:28:10.936Z,89.70
2017-10-13T00:30:39.265Z,89.80
2017-10-13T00:33:07.550Z,90.00
2017-10-13T00:35:35.844Z,90.00
2017-10-13T00:38:04.156Z,90.00
2017-10-13T00:40:32.454Z,90.10
2017-10-13T00:43:00.760Z,90.10
2017-10-13T00:45:29.053Z,90.10
2017-10-13T00:47:57.362Z,90.00
2017-10-13T00:50:25.648Z,90.00
2017-10-13T00:52:53.957Z,90.20
2017-10-13T00:55:22.245Z,90.20
2017-10-13T00:57:50.573Z,90.20
2017-10-13T01:00:18.865Z,90.20
2017-10-13T01:02:47.158Z,90.30
2017-10-13T01:05:15.464Z,90.50
2017-10-13T01:07:43.744Z,90.50
2017-10-13T01:10:12.061Z,90.40
2017-10-13T01:12:40.345Z,90.40
2017-10-13T01:15:08.663Z,90.30
2017-10-13T01:17:36.949Z,90.30
2017-10-13T01:20:05.258Z,90.30
2017-10-13T01:22:33.548Z,90.20
2017-10-13T01:25:01.869Z,90.20
2017-10-13T01:27:30.169Z,90.20
2017-10-13T01:29:58.470Z,90.20
2017-10-13T01:32:26.794Z,90.30
2017-10-13T01:34:54.338Z,90.30
2017-10-13T01:37:22.647Z,90.30
2017-10-13T01:39:50.941Z,90.20
2017-10-13T01:42:19.265Z,90.20
2017-10-13T01:44:47.560Z,90.30
2017-10-13T01:47:15.873Z,90.20
2017-10-13T01:49:44.160Z,90.20
2017-10-13T01:52:12.492Z,90.30
2017-10-13T01:54:40.788Z,90.30
2017-10-13T01:57:09.081Z,90.40
2017-10-13T01:59:37.392Z,90.40
2017-10-13T02:02:05.684Z,90.40
2017-10-13T02:04:33.997Z,90.50
2017-10-13T02:07:02.286Z,90.50
2017-10-13T02:09:30.594Z,90.50
2017-10-13T02:11:58.881Z,90.60
2017-10-13T02:14:27.184Z,90.60
2017-10-13T02:16:55.476Z,90.70
2017-10-13T02:19:23.801Z,90.70
2017-10-13T02:21:52.086Z,90.70
2017-10-13T02:24:19.610Z,90.80
2017-10-13T02:26:47.917Z,90.80
2017-10-13T02:29:16.208Z,90.90
2017-10-13T02:31:43.765Z,90.90
2017-10-13T02:34:12.055Z,91.00
2017-10-13T02:36:39.625Z,91.00
2017-10-13T02:39:07.921Z,91.10
2017-10-13T02:41:36.289Z,91.10
2017-10-13T02:44:04.588Z,91.20
2017-10-13T02:46:32.917Z,91.10
2017-10-13T02:49:01.218Z,91.10
2017-10-13T02:51:29.505Z,91.10
2017-10-13T02:53:57.818Z,91.20
2017-10-13T02:56:26.104Z,91.40
2017-10-13T02:58:54.416Z,91.50
2017-10-13T03:01:22.704Z,91.50
2017-10-13T03:03:51.016Z,91.50
2017-10-13T03:06:18.545Z,91.50
2017-10-13T03:08:46.880Z,91.30
2017-10-13T03:11:15.161Z,91.30
2017-10-13T03:13:43.490Z,91.40
2017-10-13T03:16:11.777Z,91.40
2017-10-13T03:18:40.065Z,91.50
2017-10-13T03:21:08.368Z,91.50
2017-10-13T03:23:36.660Z,91.50
2017-10-13T03:26:04.964Z,91.60
2017-10-13T03:28:33.255Z,91.60
2017-10-13T03:31:01.561Z,91.60
2017-10-13T03:33:29.849Z,91.60
2017-10-13T03:35:58.160Z,91.60
2017-10-13T03:38:26.449Z,91.60
2017-10-13T03:40:54.775Z,91.60
2017-10-13T03:43:23.065Z,91.90
2017-10-13T03:45:51.354Z,91.70
2017-10-13T03:48:19.660Z,91.70
2017-10-13T03:50:47.948Z,91.70
2017-10-13T03:53:16.325Z,91.10
2017-10-13T03:55:44.613Z,91.10
2017-10-13T03:58:12.921Z,91.00
2017-10-13T04:00:41.213Z,91.00
2017-10-13T04:03:09.541Z,91.00
2017-10-13T04:05:37.837Z,91.00
2017-10-13T04:08:06.120Z,91.10
2017-10-13T04:10:34.442Z,91.40
2017-10-13T04:13:02.744Z,91.10
2017-10-13T04:15:31.067Z,91.20
2017-10-13T04:17:59.364Z,91.30
2017-10-13T04:20:27.681Z,91.40
2017-10-13T04:22:55.968Z,91.40
2017-10-13T04:25:24.289Z,91.50
2017-10-13T04:27:52.578Z,91.60
2017-10-13T04:30:20.868Z,91.80
2017-10-13T04:32:49.180Z,91.90
2017-10-13T04:35:17.471Z,92.50
2017-10-13T04:37:45.016Z,92.50
2017-10-13T04:40:13.317Z,93.70
2017-10-13T04:42:41.684Z,94.00
2017-10-13T04:45:09.208Z,94.00
2017-10-13T04:47:37.516Z,94.10
2017-10-13T04:50:05.801Z,93.90
2017-10-13T04:52:34.137Z,93.80
2017-10-13T04:55:02.436Z,93.70
2017-10-13T04:57:30.733Z,93.50
2017-10-13T04:59:59.054Z,93.60
2017-10-13T05:02:27.359Z,93.50
2017-10-13T05:04:55.682Z,93.30
2017-10-13T05:07:23.993Z,93.50
2017-10-13T05:09:52.308Z,93.60
2017-10-13T05:12:20.600Z,93.50
2017-10-13T05:14:48.920Z,93.40
2017-10-13T05:17:17.216Z,93.20
2017-10-13T05:19:45.553Z,93.20
2017-10-13T05:22:13.856Z,93.10
2017-10-13T05:24:42.146Z,93.00
2017-10-13T05:27:10.472Z,93.00
2017-10-13T05:29:38.767Z,92.90
2017-10-13T05:32:07.091Z,92.90
2017-10-13T05:34:35.401Z,92.80
2017-10-13T05:37:03.721Z,92.70
2017-10-13T05:39:32.057Z,92.70
2017-10-13T05:42:00.373Z,92.70
2017-10-13T05:44:28.668Z,93.00
2017-10-13T05:46:56.242Z,92.70
2017-10-13T05:49:24.545Z,92.70
2017-10-13T05:51:52.838Z,92.80
2017-10-13T05:54:21.161Z,92.70
2017-10-13T05:56:49.465Z,92.70
2017-10-13T05:59:17.780Z,92.70
2017-10-13T06:01:46.076Z,92.70
2017-10-13T06:04:14.397Z,92.90
2017-10-13T06:06:42.694Z,92.90
2017-10-13T06:09:11.032Z,92.80
2017-10-13T06:11:39.324Z,92.90
2017-10-13T06:14:07.616Z,93.00
2017-10-13T06:16:35.937Z,93.00
2017-10-13T06:19:04.241Z,93.00
2017-10-13T06:21:32.571Z,93.00
2017-10-13T06:24:00.877Z,92.90
2017-10-13T06:26:29.196Z,92.90
2017-10-13T06:28:57.492Z,92.90
2017-10-13T06:31:25.808Z,93.10
2017-10-13T06:33:54.105Z,93.30
2017-10-13T06:36:22.404Z,93.60
2017-10-13T06:38:49.960Z,93.60
2017-10-13T06:41:18.260Z,94.00
2017-10-13T06:43:46.584Z,94.10
2017-10-13T06:46:14.876Z,94.10
2017-10-13T06:48:43.205Z,94.00
2017-10-13T06:51:11.501Z,94.10
2017-10-13T06:53:39.816Z,94.10
2017-10-13T06:56:08.116Z,94.00
2017-10-13T06:58:36.445Z,93.90
2017-10-13T07:01:04.752Z,93.90
2017-10-13T07:03:32.289Z,93.90
2017-10-13T07:06:00.612Z,93.70
2017-10-13T07:08:28.901Z,93.70
2017-10-13T07:10:57.221Z,93.70
2017-10-13T07:13:25.516Z,93.60
2017-10-13T07:15:53.833Z,93.60
2017-10-13T07:18:22.129Z,93.80
2017-10-13T07:20:50.445Z,93.90
2017-10-13T07:23:18.783Z,93.60
2017-10-13T07:25:47.109Z,93.40
2017-10-13T07:28:15.402Z,93.30
2017-10-13T07:30:43.704Z,93.70
2017-10-13T07:33:12.025Z,93.10
2017-10-13T07:35:40.327Z,93.00
2017-10-13T07:38:07.873Z,93.00
2017-10-13T07:40:36.177Z,92.80
2017-10-13T07:43:04.495Z,92.70
2017-10-13T07:45:32.811Z,92.60
2017-10-13T07:48:01.124Z,92.80
2017-10-13T07:50:29.407Z,92.30
2017-10-13T07:52:57.734Z,92.20
2017-10-13T07:55:26.028Z,92.00
2017-10-13T07:57:54.316Z,91.90
2017-10-13T08:00:22.624Z,92.00
2017-10-13T08:02:50.912Z,91.50
2017-10-13T08:05:19.220Z,91.50
2017-10-13T08:07:47.514Z,91.40
2017-10-13T08:10:15.820Z,91.10
2017-10-13T08:12:44.109Z,90.90
2017-10-13T08:15:12.420Z,90.90
2017-10-13T08:17:40.717Z,91.00
2017-10-13T08:20:09.053Z,91.00
2017-10-13T08:22:36.576Z,91.00
2017-10-13T08:25:04.874Z,90.90
2017-10-13T08:27:33.189Z,90.90
2017-10-13T08:30:01.491Z,91.00
2017-10-13T08:32:29.801Z,90.70
2017-10-13T08:34:58.089Z,90.40
2017-10-13T08:37:26.400Z,90.40
2017-10-13T08:39:54.684Z,90.30
2017-10-13T08:42:22.989Z,90.10
2017-10-13T08:44:51.277Z,89.90
2017-10-13T08:47:19.608Z,89.40
2017-10-13T08:49:47.897Z,88.90
2017-10-13T08:52:18.205Z,88.50
2017-10-13T08:54:46.510Z,87.80
2017-10-13T08:57:14.817Z,87.70
2017-10-13T08:59:43.129Z,87.70
2017-10-13T09:02:10.644Z,87.70
2017-10-13T09:04:38.954Z,88.10
2017-10-13T09:07:06.473Z,88.00
2017-10-13T09:09:34.787Z,88.40
2017-10-13T09:12:03.809Z,88.50
2017-10-13T09:14:32.140Z,88.30
2017-10-13T09:17:00.424Z,87.80
2017-10-13T09:19:28.712Z,87.70
2017-10-13T09:21:57.020Z,87.50
2017-10-13T09:24:25.309Z,87.40
2017-10-13T09:26:53.621Z,87.30
2017-10-13T09:29:21.914Z,86.70
2017-10-13T09:31:50.224Z,86.80
2017-10-13T09:34:18.517Z,86.70
2017-10-13T09:36:46.829Z,86.80
2017-10-13T09:39:15.573Z,87.20
2017-10-13T09:41:43.881Z,87.40
2017-10-13T09:44:12.172Z,87.40
2017-10-13T09:46:40.496Z,87.00
2017-10-13T09:49:08.782Z,86.60
2017-10-13T09:51:37.067Z,86.10
2017-10-13T09:54:05.381Z,85.80
2017-10-13T09:56:33.668Z,85.60
2017-10-13T09:59:02.804Z,85.90
2017-10-13T10:01:32.825Z,85.60
2017-10-13T10:04:01.133Z,85.40
2017-10-13T10:06:29.412Z,84.60
2017-10-13T10:08:57.724Z,82.60
2017-10-13T10:11:26.009Z,81.70
2017-10-13T10:13:54.341Z,80.70
2017-10-13T10:16:22.628Z,79.60
2017-10-13T10:18:50.920Z,79.10
2017-10-13T10:21:19.233Z,79.30
2017-10-13T10:23:47.538Z,79.50
2017-10-13T10:26:15.844Z,80.20
2017-10-13T10:28:44.148Z,80.20
2017-10-13T10:31:12.463Z,79.90
2017-10-13T10:33:40.749Z,79.40
2017-10-13T10:36:09.075Z,79.80
2017-10-13T10:38:37.417Z,79.50
2017-10-13T10:41:05.740Z,79.70
2017-10-13T10:43:34.035Z,79.90
2017-10-13T10:46:01.568Z,79.90
2017-10-13T10:48:29.876Z,80.40
2017-10-13T10:50:58.171Z,80.10
2017-10-13T10:53:26.488Z,80.30
2017-10-13T10:55:54.785Z,80.50
2017-10-13T10:58:23.101Z,80.40
2017-10-13T11:00:51.388Z,80.30
2017-10-13T11:03:19.708Z,79.30
2017-10-13T11:05:48.000Z,79.20
2017-10-13T11:08:16.296Z,78.40
2017-10-13T11:10:44.602Z,78.70
2017-10-13T11:13:12.884Z,78.70
2017-10-13T11:15:41.233Z,78.70
2017-10-13T11:18:09.523Z,78.80
2017-10-13T11:20:37.841Z,78.40
2017-10-13T11:23:06.132Z,78.70
2017-10-13T11:25:33.706Z,78.70
2017-10-13T11:28:02.024Z,79.20
2017-10-13T11:30:30.315Z,79.10
2017-10-13T11:32:58.632Z,79.00
2017-10-13T11:35:26.922Z,78.80
2017-10-13T11:37:55.277Z,78.40
2017-10-13T11:40:23.569Z,78.00
2017-10-13T11:42:51.989Z,77.60
2017-10-13T11:45:20.305Z,77.00
2017-10-13T11:47:48.625Z,76.70
2017-10-13T11:50:16.921Z,76.60
2017-10-13T11:52:45.215Z,77.40
2017-10-13T11:55:13.532Z,78.10
2017-10-13T11:57:41.817Z,78.80
2017-10-13T12:00:10.129Z,79.30
2017-10-13T12:02:38.420Z,79.40
2017-10-13T12:05:06.735Z,79.00
2017-10-13T12:07:35.041Z,78.40
2017-10-13T12:10:03.363Z,77.60
2017-10-13T12:12:31.686Z,77.70
2017-10-13T12:15:00.016Z,77.30
2017-10-13T12:17:28.310Z,76.50
2017-10-13T12:19:56.600Z,76.30
2017-10-13T12:22:24.925Z,74.30
2017-10-13T12:24:53.205Z,72.20
2017-10-13T12:27:21.513Z,70.50
2017-10-13T12:29:49.800Z,70.70
2017-10-13T12:32:18.109Z,71.20
2017-10-13T12:34:46.396Z,72.00
2017-10-13T12:37:14.729Z,73.10
2017-10-13T12:39:43.012Z,72.80
2017-10-13T12:42:11.300Z,73.40
2017-10-13T12:44:39.616Z,74.20
2017-10-13T12:47:07.900Z,74.40
2017-10-13T12:49:36.209Z,74.00
2017-10-13T12:52:04.498Z,74.30
2017-10-13T12:54:32.818Z,74.70
2017-10-13T12:57:01.105Z,75.30
2017-10-13T12:59:29.418Z,75.30
2017-10-13T13:01:57.705Z,73.70
2017-10-13T13:04:25.992Z,71.40
2017-10-13T13:06:54.304Z,69.40
2017-10-13T13:09:22.594Z,68.70
2017-10-13T13:11:50.920Z,67.90
2017-10-13T13:14:19.273Z,66.50
2017-10-13T13:16:47.612Z,65.90
2017-10-13T13:19:15.921Z,66.10
2017-10-13T13:21:44.248Z,67.00
2017-10-13T13:24:12.540Z,68.00
2017-10-13T13:26:40.836Z,68.50
2017-10-13T13:29:09.149Z,68.30
2017-10-13T13:31:37.437Z,68.20
2017-10-13T13:34:04.990Z,68.10
2017-10-13T13:36:33.298Z,68.20
2017-10-13T13:39:01.617Z,68.00
2017-10-13T13:41:29.905Z,69.70
2017-10-13T13:43:58.233Z,70.30
2017-10-13T13:46:26.525Z,71.10
2017-10-13T13:48:54.816Z,71.70
2017-10-13T13:51:23.125Z,72.00
2017-10-13T13:53:50.640Z,72.00
2017-10-13T13:56:18.957Z,72.80
2017-10-13T13:58:47.252Z,71.00
2017-10-13T14:01:15.569Z,69.90
2017-10-13T14:03:43.876Z,69.40
2017-10-13T14:06:12.207Z,68.10
2017-10-13T14:08:40.497Z,66.70
2017-10-13T14:11:08.785Z,66.40
2017-10-13T14:13:37.097Z,65.70
2017-10-13T14:16:05.393Z,63.00
2017-10-13T14:18:33.722Z,63.30
2017-10-13T14:21:03.162Z,63.40
2017-10-13T14:23:31.488Z,63.20
2017-10-13T14:25:59.773Z,63.30
2017-10-13T14:28:28.093Z,62.70
2017-10-13T14:30:56.378Z,62.80
2017-10-13T14:33:24.669Z,63.50
2017-10-13T14:35:52.981Z,63.80
2017-10-13T14:38:21.269Z,65.00
2017-10-13T14:40:49.583Z,65.00
2017-10-13T14:43:17.098Z,65.00
2017-10-13T14:45:45.413Z,65.10
2017-10-13T14:48:13.705Z,65.00
2017-10-13T14:50:42.015Z,65.40
2017-10-13T14:53:10.304Z,65.70
2017-10-13T14:55:38.592Z,66.00
2017-10-13T14:58:06.905Z,65.40
2017-10-13T15:00:35.202Z,63.70
2017-10-13T15:03:03.534Z,63.90
2017-10-13T15:05:31.842Z,64.90
2017-10-13T15:08:00.145Z,65.50
2017-10-13T15:10:28.441Z,65.40
2017-10-13T15:12:56.779Z,65.60
2017-10-13T15:15:25.073Z,65.70
2017-10-13T15:17:52.593Z,65.70
2017-10-13T15:20:20.897Z,66.90
2017-10-13T15:22:48.420Z,66.90
2017-10-13T15:25:22.357Z,68.20
2017-10-13T15:27:56.324Z,68.70
2017-10-13T15:30:30.345Z,69.20
2017-10-13T15:33:04.408Z,69.80
2017-10-13T15:35:38.452Z,70.00
2017-10-13T15:38:21.625Z,70.70
2017-10-13T15:41:07.746Z,71.20
2017-10-13T15:43:41.671Z,72.10
2017-10-13T15:46:15.677Z,72.50
2017-10-13T15:48:43.198Z,72.50
2017-10-13T15:51:17.267Z,73.10
2017-10-13T15:53:45.561Z,73.40
2017-10-13T15:56:14.793Z,73.80
2017-10-13T15:58:42.328Z,73.80
2017-10-13T16:01:10.645Z,74.70
2017-10-13T16:03:38.938Z,75.20
2017-10-13T16:06:07.227Z,75.90
2017-10-13T16:08:35.536Z,76.60
2017-10-13T16:11:03.829Z,77.20
2017-10-13T16:13:32.137Z,77.70
2017-10-13T16:16:00.425Z,78.50
2017-10-13T16:18:28.737Z,79.10
2017-10-13T16:20:57.028Z,79.50
2017-10-13T16:23:25.338Z,80.00
2017-10-13T16:25:53.620Z,80.40
2017-10-13T16:28:21.952Z,80.90
2017-10-13T16:30:50.242Z,81.40
2017-10-13T16:33:18.544Z,81.90
2017-10-13T16:35:46.847Z,82.30
2017-10-13T16:38:15.140Z,82.60
2017-10-13T16:40:43.444Z,83.30
2017-10-13T16:43:11.728Z,84.10
2017-10-13T16:45:40.033Z,83.90
2017-10-13T16:48:08.329Z,84.40
2017-10-13T16:50:36.644Z,84.80
2017-10-13T16:53:04.936Z,85.20
2017-10-13T16:55:33.272Z,85.50
2017-10-13T16:58:01.563Z,85.80
2017-10-13T17:00:29.852Z,86.20
2017-10-13T17:02:58.158Z,86.50
2017-10-13T17:05:26.441Z,86.70
2017-10-13T17:07:53.981Z,86.70
2017-10-13T17:10:22.274Z,87.40
2017-10-13T17:12:50.587Z,87.60
2017-10-13T17:15:18.900Z,87.90
2017-10-13T17:17:47.218Z,88.10
2017-10-13T17:20:15.529Z,88.60
2017-10-13T17:22:43.859Z,88.70
2017-10-13T17:25:12.145Z,88.90
2017-10-13T17:27:40.440Z,89.10
2017-10-13T17:30:08.753Z,89.30
2017-10-13T17:32:37.050Z,89.60
2017-10-13T17:35:05.369Z,90.00
2017-10-13T17:37:33.662Z,90.10
2017-10-13T17:40:01.983Z,90.20
2017-10-13T17:42:30.300Z,90.30
2017-10-13T17:44:58.613Z,90.30
2017-10-13T17:47:26.910Z,90.40
2017-10-13T17:49:55.249Z,90.90
2017-10-13T17:52:23.560Z,90.40
2017-10-13T17:54:51.861Z,90.40
2017-10-13T17:57:20.180Z,90.30
2017-10-13T17:59:48.488Z,90.40
2017-10-13T18:02:16.809Z,90.40
2017-10-13T18:04:45.096Z,90.40
2017-10-13T18:07:13.425Z,90.60
2017-10-13T18:09:41.733Z,90.70
2017-10-13T18:12:10.058Z,90.70
2017-10-13T18:14:38.356Z,90.60
2017-10-13T18:17:06.693Z,90.60
2017-10-13T18:19:34.993Z,90.70
2017-10-13T18:22:03.302Z,90.60
2017-10-13T18:24:31.619Z,90.70
2017-10-13T18:26:59.913Z,90.70
2017-10-13T18:29:28.240Z,90.90
2017-10-13T18:31:56.537Z,91.00
2017-10-13T18:34:24.857Z,91.10
2017-10-13T18:36:53.156Z,91.10
2017-10-13T18:39:21.478Z,91.10
2017-10-13T18:41:49.781Z,91.00
2017-10-13T18:44:18.105Z,91.40
2017-10-13T18:46:46.430Z,91.00
2017-10-13T18:49:14.933Z,91.00
2017-10-13T18:51:43.254Z,91.10
2017-10-13T18:54:11.557Z,91.20
2017-10-13T18:56:39.876Z,91.10
2017-10-13T18:59:08.177Z,91.20
2017-10-13T19:01:36.504Z,91.20
2017-10-13T19:04:04.831Z,91.20
2017-10-13T19:06:33.887Z,91.20
2017-10-13T19:09:02.180Z,91.30
2017-10-13T19:11:30.524Z,91.30
2017-10-13T19:13:58.820Z,91.30
2017-10-13T19:16:27.116Z,91.30
2017-10-13T19:18:55.443Z,91.40
2017-10-13T19:21:23.738Z,91.40
2017-10-13T19:23:52.058Z,91.40
2017-10-13T19:26:20.360Z,91.50
2017-10-13T19:28:48.672Z,91.60
2017-10-13T19:31:16.973Z,91.70
2017-10-13T19:33:45.293Z,91.70
2017-10-13T19:36:13.593Z,91.70
2017-10-13T19:38:41.889Z,91.70
2017-10-13T19:41:10.205Z,91.50
2017-10-13T19:43:38.498Z,91.50
2017-10-13T19:46:06.816Z,91.40
2017-10-13T19:48:35.109Z,91.40
2017-10-13T19:51:03.430Z,91.50
2017-10-13T19:53:32.477Z,91.60
2017-10-13T19:56:00.816Z,91.60
2017-10-13T19:58:29.114Z,91.60
2017-10-13T20:00:57.417Z,91.60
2017-10-13T20:03:25.745Z,91.60
2017-10-13T20:05:54.049Z,91.60
2017-10-13T20:08:22.374Z,91.50
2017-10-13T20:10:50.668Z,91.50
2017-10-13T20:13:18.989Z,91.50
2017-10-13T20:15:47.304Z,91.60
2017-10-13T20:18:15.632Z,91.60
2017-10-13T20:20:43.932Z,91.60
2017-10-13T20:23:12.270Z,91.70
2017-10-13T20:25:40.573Z,91.70
2017-10-13T20:28:08.872Z,91.60
2017-10-13T20:30:37.184Z,91.70
2017-10-13T20:33:05.480Z,91.70
2017-10-13T20:35:33.041Z,91.70
2017-10-13T20:38:04.843Z,91.60
2017-10-13T20:40:33.162Z,91.60
2017-10-13T20:43:01.486Z,91.70
2017-10-13T20:45:29.800Z,91.70
2017-10-13T20:47:58.101Z,91.70
2017-10-13T20:50:26.437Z,91.70
2017-10-13T20:52:54.728Z,91.70
2017-10-13T20:55:23.020Z,91.70
2017-10-13T20:57:51.333Z,91.70
2017-10-13T21:00:19.638Z,91.70
2017-10-13T21:02:47.973Z,91.80
2017-10-13T21:05:16.268Z,91.80
2017-10-13T21:07:44.580Z,91.90
2017-10-13T21:10:12.878Z,92.00
2017-10-13T21:12:41.207Z,92.00
2017-10-13T21:15:09.505Z,92.00
2017-10-13T21:17:37.802Z,91.90
2017-10-13T21:20:06.164Z,91.90
2017-10-13T21:22:34.561Z,91.80
2017-10-13T21:25:02.912Z,91.80
2017-10-13T21:27:31.237Z,91.80
2017-10-13T21:29:59.595Z,91.80
2017-10-13T21:32:27.893Z,91.80
2017-10-13T21:34:56.296Z,91.70
2017-10-13T21:37:24.631Z,91.70
2017-10-13T21:39:52.940Z,91.70
2017-10-13T21:42:21.269Z,92.10
2017-10-13T21:44:49.572Z,91.70
2017-10-13T21:47:17.893Z,91.60
2017-10-13T21:49:46.194Z,91.60
2017-10-13T21:52:14.530Z,91.70
2017-10-13T21:54:42.840Z,91.70
2017-10-13T21:57:11.176Z,92.10
2017-10-13T21:59:39.473Z,91.80
2017-10-13T22:02:07.777Z,91.90
2017-10-13T22:04:36.101Z,92.00
2017-10-13T22:07:03.646Z,92.00
2017-10-13T22:09:31.980Z,92.10
2017-10-13T22:12:00.285Z,92.00
2017-10-13T22:14:28.613Z,92.00
2017-10-13T22:16:56.912Z,91.90
2017-10-13T22:19:25.246Z,91.80
2017-10-13T22:21:52.792Z,91.80
2017-10-13T22:24:22.009Z,91.70
2017-10-13T22:26:50.319Z,91.60
2017-10-13T22:29:18.653Z,91.60
2017-10-13T22:31:47.765Z,91.50
2017-10-13T22:34:16.073Z,91.50
2017-10-13T22:36:44.392Z,91.60
2017-10-13T22:39:11.925Z,91.60
2017-10-13T22:41:40.244Z,91.60
2017-10-13T22:44:08.547Z,91.60
2017-10-13T22:46:36.864Z,91.60
2017-10-13T22:49:04.398Z,91.60
2017-10-13T22:51:37.822Z,91.50
2017-10-13T22:54:06.213Z,91.50
2017-10-13T22:56:33.888Z,91.50
2017-10-13T22:59:02.226Z,91.50
2017-10-13T23:01:30.525Z,91.50
2017-10-13T23:03:58.842Z,91.80
2017-10-13T23:06:27.141Z,91.50
2017-10-13T23:08:55.476Z,91.40
2017-10-13T23:11:23.765Z,91.40
2017-10-13T23:13:52.090Z,91.40
2017-10-13T23:16:20.385Z,91.40
2017-10-13T23:18:48.689Z,91.40
2017-10-13T23:21:17.013Z,91.40
2017-10-13T23:23:45.317Z,91.40
2017-10-13T23:26:13.633Z,91.40
2017-10-13T23:28:41.935Z,91.30
2017-10-13T23:31:10.257Z,91.40
2017-10-13T23:33:38.555Z,91.30
2017-10-13T23:36:06.873Z,91.30
2017-10-13T23:38:35.175Z,91.30
2017-10-13T23:41:03.509Z,91.30
2017-10-13T23:43:31.819Z,91.20
2017-10-13T23:46:00.125Z,91.20
2017-10-13T23:48:28.448Z,91.20
2017-10-13T23:50:56.746Z,91.10
2017-10-13T23:53:25.060Z,91.10
2017-10-13T23:55:53.357Z,91.10
2017-10-13T23:58:21.686Z,91.10
